Terminal Aerodrome Forecast
Issued by NWS

Home | Current Version | Previous Version | Text Only | Print | Product List | Glossary Off
Versions: 1 2 3 4 5 6 7 8 9 10 11 12 13 14 15 16 17 18 19 20 21 22 23

000
FTUS43 KLOT 202354
TAFGYY
TAF
KGYY 202354Z 2100/2124 07006KT P6SM VCSH BKN035
     FM210300 VRB04KT P6SM BKN050
     FM211500 12005KT P6SM BKN100=

USA.gov is the U.S. government's official web portal to all federal, state and local government web resources and services.